createdAt,value
2018-12-05T00:00:23.967Z,7.37
2018-12-05T00:02:52.097Z,4.22
2018-12-05T00:05:20.284Z,11.03
2018-12-05T00:07:48.476Z,9.73
2018-12-05T00:10:16.661Z,7.72
2018-12-05T00:12:44.864Z,9.65
2018-12-05T00:15:13.039Z,10.23
2018-12-05T00:17:41.225Z,8.23
2018-12-05T00:20:09.408Z,8.38
2018-12-05T00:22:37.605Z,8.33
2018-12-05T00:25:05.781Z,8.45
2018-12-05T00:27:33.981Z,10.18
2018-12-05T00:30:02.181Z,13.18
2018-12-05T00:32:30.468Z,11.95
2018-12-05T00:34:58.643Z,7.37
2018-12-05T00:37:26.828Z,10.20
2018-12-05T00:39:55.012Z,13.08
2018-12-05T00:42:24.147Z,11.63
2018-12-05T00:44:52.308Z,16.93
2018-12-05T00:47:20.492Z,9.88
2018-12-05T00:49:48.672Z,8.88
2018-12-05T00:52:16.871Z,11.70
2018-12-05T00:54:45.978Z,17.30
2018-12-05T00:57:14.392Z,10.15
2018-12-05T00:59:42.668Z,14.00
2018-12-05T01:02:10.852Z,12.28
2018-12-05T01:04:39.032Z,10.63
2018-12-05T01:07:07.217Z,11.03
2018-12-05T01:09:37.376Z,10.90
2018-12-05T01:12:05.544Z,11.15
2018-12-05T01:14:33.723Z,11.88
2018-12-05T01:17:01.908Z,11.05
2018-12-05T01:19:30.100Z,10.95
2018-12-05T01:21:58.284Z,11.68
2018-12-05T01:24:26.544Z,19.25
2018-12-05T01:26:54.668Z,12.47
2018-12-05T01:29:22.872Z,10.60
2018-12-05T01:31:51.028Z,12.55
2018-12-05T01:34:19.223Z,10.23
2018-12-05T01:36:47.411Z,16.23
2018-12-05T01:39:15.604Z,14.78
2018-12-05T01:41:43.777Z,14.58
2018-12-05T01:44:11.972Z,15.68
2018-12-05T01:46:40.156Z,12.43
2018-12-05T01:49:08.347Z,14.87
2018-12-05T01:51:36.532Z,20.10
2018-12-05T01:54:04.752Z,14.20
2018-12-05T01:56:32.848Z,15.18
2018-12-05T01:59:00.987Z,15.58
2018-12-05T02:01:29.163Z,14.60
2018-12-05T02:03:57.381Z,16.35
2018-12-05T02:06:25.544Z,18.07
2018-12-05T02:08:53.740Z,16.48
2018-12-05T02:11:21.912Z,16.35
2018-12-05T02:13:50.136Z,15.78
2018-12-05T02:16:18.292Z,12.50
2018-12-05T02:18:46.576Z,13.60
2018-12-05T02:21:14.675Z,15.00
2018-12-05T02:23:42.872Z,16.17
2018-12-05T02:26:11.044Z,12.33
2018-12-05T02:28:39.242Z,11.55
2018-12-05T02:31:07.430Z,15.38
2018-12-05T02:33:35.624Z,15.83
2018-12-05T02:36:03.885Z,11.70
2018-12-05T02:38:32.083Z,10.20
2018-12-05T02:41:00.264Z,11.57
2018-12-05T02:43:28.444Z,12.70
2018-12-05T02:45:56.640Z,13.28
2018-12-05T02:48:24.923Z,15.25
2018-12-05T02:50:53.004Z,13.10
2018-12-05T02:53:21.186Z,15.05
2018-12-05T02:55:49.345Z,17.42
2018-12-05T02:58:17.478Z,14.07
2018-12-05T03:00:45.548Z,16.70
2018-12-05T03:03:13.730Z,15.80
2018-12-05T03:05:41.834Z,15.95
2018-12-05T03:08:10.000Z,12.40
2018-12-05T03:10:38.230Z,14.55
2018-12-05T03:13:06.505Z,21.20
2018-12-05T03:15:34.700Z,12.35
2018-12-05T03:18:02.886Z,13.32
2018-12-05T03:20:31.086Z,10.75
2018-12-05T03:22:59.358Z,14.33
2018-12-05T03:25:27.663Z,11.70
2018-12-05T03:27:55.943Z,15.10
2018-12-05T03:30:24.239Z,13.40
2018-12-05T03:32:52.521Z,13.75
2018-12-05T03:35:25.061Z,13.58
2018-12-05T03:37:53.193Z,14.55
2018-12-05T03:40:21.381Z,13.25
2018-12-05T03:42:49.560Z,12.75
2018-12-05T03:45:17.760Z,16.55
2018-12-05T03:47:45.940Z,15.83
2018-12-05T03:50:14.133Z,15.28
2018-12-05T03:52:42.309Z,15.15
2018-12-05T03:55:10.609Z,13.78
2018-12-05T03:57:38.794Z,19.05
2018-12-05T04:00:07.012Z,14.65
2018-12-05T04:02:35.261Z,11.75
2018-12-05T04:05:03.448Z,13.00
2018-12-05T04:07:31.650Z,14.38
2018-12-05T04:09:59.824Z,11.33
2018-12-05T04:12:28.023Z,17.52
2018-12-05T04:14:56.310Z,14.20
2018-12-05T04:17:24.496Z,11.68
2018-12-05T04:19:52.676Z,11.60
2018-12-05T04:22:20.981Z,12.60
2018-12-05T04:24:49.176Z,14.68
2018-12-05T04:27:17.340Z,12.18
2018-12-05T04:29:45.529Z,10.63
2018-12-05T04:32:13.740Z,15.40
2018-12-05T04:34:41.904Z,11.95
2018-12-05T04:37:10.198Z,15.35
2018-12-05T04:39:38.377Z,18.15
2018-12-05T04:42:06.577Z,18.27
2018-12-05T04:44:34.844Z,11.83
2018-12-05T04:47:03.041Z,12.28
2018-12-05T04:49:31.221Z,14.20
2018-12-05T04:51:59.420Z,17.45
2018-12-05T04:54:27.601Z,12.35
2018-12-05T04:56:55.792Z,16.65
2018-12-05T04:59:23.973Z,11.75
2018-12-05T05:01:52.189Z,12.55
2018-12-05T05:04:20.450Z,14.63
2018-12-05T05:06:48.696Z,14.83
2018-12-05T05:09:16.886Z,13.78
2018-12-05T05:11:45.121Z,17.90
2018-12-05T05:14:13.299Z,15.10
2018-12-05T05:16:41.510Z,16.23
2018-12-05T05:19:09.677Z,15.25
2018-12-05T05:21:37.892Z,18.12
2018-12-05T05:24:06.049Z,16.25
2018-12-05T05:26:34.330Z,15.18
2018-12-05T05:29:02.528Z,17.00
2018-12-05T05:31:30.704Z,18.77
2018-12-05T05:33:58.909Z,16.55
2018-12-05T05:36:27.096Z,19.27
2018-12-05T05:38:55.395Z,20.40
2018-12-05T05:41:23.563Z,18.57
2018-12-05T05:43:51.867Z,18.57
2018-12-05T05:46:20.140Z,16.67
2018-12-05T05:48:48.332Z,15.60
2018-12-05T05:51:16.519Z,14.63
2018-12-05T05:53:44.812Z,17.98
2018-12-05T05:56:12.993Z,15.45
2018-12-05T05:58:41.192Z,13.13
2018-12-05T06:01:09.415Z,17.37
2018-12-05T06:03:37.631Z,16.65
2018-12-05T06:06:05.753Z,15.10
2018-12-05T06:08:33.926Z,12.60
2018-12-05T06:11:02.249Z,17.98
2018-12-05T06:13:30.414Z,17.73
2018-12-05T06:15:58.525Z,16.57
2018-12-05T06:18:26.745Z,12.23
2018-12-05T06:20:54.970Z,12.53
2018-12-05T06:23:23.161Z,12.93
2018-12-05T06:25:51.340Z,15.00
2018-12-05T06:28:19.633Z,14.33
2018-12-05T06:30:47.838Z,12.13
2018-12-05T06:33:16.004Z,11.45
2018-12-05T06:35:44.193Z,13.20
2018-12-05T06:38:12.381Z,15.88
2018-12-05T06:40:40.568Z,13.15
2018-12-05T06:43:08.862Z,14.40
2018-12-05T06:45:37.041Z,14.95
2018-12-05T06:48:05.236Z,14.58
2018-12-05T06:50:33.413Z,15.00
2018-12-05T06:53:01.721Z,13.55
2018-12-05T06:55:29.888Z,13.35
2018-12-05T06:57:58.015Z,9.85
2018-12-05T07:00:26.164Z,12.25
2018-12-05T07:02:54.353Z,12.40
2018-12-05T07:05:23.061Z,12.65
2018-12-05T07:07:51.237Z,15.78
2018-12-05T07:10:19.401Z,11.97
2018-12-05T07:12:47.609Z,14.38
2018-12-05T07:15:15.692Z,11.53
2018-12-05T07:17:43.842Z,11.20
2018-12-05T07:20:11.944Z,14.58
2018-12-05T07:22:40.116Z,11.20
2018-12-05T07:25:08.312Z,12.13
2018-12-05T07:27:36.505Z,13.65
2018-12-05T07:30:04.732Z,13.35
2018-12-05T07:32:32.868Z,12.30
2018-12-05T07:35:01.064Z,11.38
2018-12-05T07:37:29.233Z,13.03
2018-12-05T07:39:57.330Z,16.20
2018-12-05T07:42:25.508Z,13.72
2018-12-05T07:44:53.604Z,9.08
2018-12-05T07:47:21.786Z,12.20
2018-12-05T07:49:49.983Z,11.53
2018-12-05T07:52:19.176Z,16.73
2018-12-05T07:54:48.568Z,11.68
2018-12-05T07:57:16.636Z,11.48
2018-12-05T07:59:44.720Z,13.43
2018-12-05T08:02:13.186Z,9.65
2018-12-05T08:04:41.352Z,13.93
2018-12-05T08:07:09.533Z,12.45
2018-12-05T08:09:37.754Z,31.52
2018-12-05T08:12:05.949Z,48.87
2018-12-05T08:14:34.129Z,23.07
2018-12-05T08:17:02.311Z,17.73
2018-12-05T08:19:30.493Z,15.55
2018-12-05T08:21:58.700Z,15.75
2018-12-05T08:24:26.869Z,15.28
2018-12-05T08:26:55.069Z,12.25
2018-12-05T08:29:23.346Z,14.75
2018-12-05T08:31:51.540Z,18.77
2018-12-05T08:34:19.712Z,14.30
2018-12-05T08:36:47.931Z,11.55
2018-12-05T08:39:16.089Z,8.85
2018-12-05T08:41:44.296Z,11.55
2018-12-05T08:44:12.472Z,17.02
2018-12-05T08:46:40.668Z,12.58
2018-12-05T08:49:08.840Z,12.88
2018-12-05T08:51:37.032Z,10.23
2018-12-05T08:54:05.393Z,12.45
2018-12-05T08:56:33.608Z,13.30
2018-12-05T08:59:01.788Z,16.25
2018-12-05T09:01:29.989Z,10.10
2018-12-05T09:03:58.084Z,15.32
2018-12-05T09:06:26.260Z,15.85
2018-12-05T09:08:54.442Z,11.12
2018-12-05T09:11:22.612Z,14.60
2018-12-05T09:13:50.805Z,12.30
2018-12-05T09:16:19.108Z,14.15
2018-12-05T09:18:47.373Z,14.85
2018-12-05T09:21:15.550Z,10.55
2018-12-05T09:23:43.740Z,12.63
2018-12-05T09:26:11.960Z,10.40
2018-12-05T09:28:40.115Z,19.55
2018-12-05T09:31:08.288Z,14.55
2018-12-05T09:33:36.489Z,13.40
2018-12-05T09:36:04.667Z,12.88
2018-12-05T09:38:32.756Z,10.00
2018-12-05T09:41:00.941Z,12.20
2018-12-05T09:43:29.509Z,13.10
2018-12-05T09:45:57.616Z,12.53
2018-12-05T09:48:25.716Z,10.32
2018-12-05T09:50:53.916Z,9.70
2018-12-05T09:53:22.119Z,15.83
2018-12-05T09:55:50.399Z,11.33
2018-12-05T09:58:18.589Z,17.55
2018-12-05T10:00:46.885Z,13.00
2018-12-05T10:03:15.068Z,11.73
2018-12-05T10:05:43.249Z,9.60
2018-12-05T10:08:11.440Z,11.73
2018-12-05T10:10:39.633Z,13.00
2018-12-05T10:13:07.833Z,9.95
2018-12-05T10:15:35.938Z,9.30
2018-12-05T10:18:04.085Z,13.93
2018-12-05T10:20:32.277Z,13.65
2018-12-05T10:23:00.460Z,11.88
2018-12-05T10:25:28.748Z,11.15
2018-12-05T10:27:56.864Z,13.88
2018-12-05T10:30:25.121Z,12.50
2018-12-05T10:32:53.305Z,11.80
2018-12-05T10:35:21.497Z,11.90
2018-12-05T10:37:49.672Z,12.03
2018-12-05T10:40:17.869Z,15.88
2018-12-05T10:42:46.054Z,14.80
2018-12-05T10:45:14.344Z,8.73
2018-12-05T10:47:42.532Z,9.85
2018-12-05T10:50:10.725Z,11.55
2018-12-05T10:52:38.907Z,10.93
2018-12-05T10:55:07.100Z,10.25
2018-12-05T10:57:35.270Z,9.08
2018-12-05T11:00:04.265Z,10.98
2018-12-05T11:02:38.085Z,11.63
2018-12-05T11:05:11.856Z,11.45
2018-12-05T11:07:45.611Z,11.55
2018-12-05T11:10:19.111Z,12.55
2018-12-05T11:12:52.729Z,9.78
2018-12-05T11:15:26.252Z,13.45
2018-12-05T11:17:59.865Z,14.85
2018-12-05T11:20:33.408Z,13.55
2018-12-05T11:23:07.072Z,10.30
2018-12-05T11:25:35.255Z,13.03
2018-12-05T11:28:03.332Z,13.83
2018-12-05T11:30:31.553Z,13.65
2018-12-05T11:32:59.737Z,16.15
2018-12-05T11:35:27.924Z,18.45
2018-12-05T11:37:56.104Z,11.45
2018-12-05T11:40:24.196Z,11.43
2018-12-05T11:42:52.383Z,15.60
2018-12-05T11:45:20.577Z,15.03
2018-12-05T11:47:48.908Z,11.95
2018-12-05T11:50:17.048Z,12.23
2018-12-05T11:52:45.228Z,16.45
2018-12-05T11:55:13.327Z,14.43
2018-12-05T11:57:41.505Z,11.55
2018-12-05T12:00:09.680Z,9.53
2018-12-05T12:02:37.778Z,11.43
2018-12-05T12:05:05.849Z,12.58
2018-12-05T12:07:33.953Z,11.40
2018-12-05T12:10:02.119Z,13.25
2018-12-05T12:12:35.652Z,16.67
2018-12-05T12:15:04.012Z,13.13
2018-12-05T12:17:32.127Z,14.95
2018-12-05T12:20:00.237Z,13.08
2018-12-05T12:22:28.392Z,13.35
2018-12-05T12:24:56.579Z,12.78
2018-12-05T12:27:24.766Z,8.85
2018-12-05T12:29:52.943Z,13.83
2018-12-05T12:32:21.032Z,12.93
2018-12-05T12:34:49.279Z,10.98
2018-12-05T12:37:17.416Z,16.75
2018-12-05T12:39:45.596Z,12.75
2018-12-05T12:42:13.684Z,15.43
2018-12-05T12:44:41.863Z,13.78
2018-12-05T12:47:10.052Z,12.85
2018-12-05T12:49:38.145Z,13.88
2018-12-05T12:52:06.546Z,21.27
2018-12-05T12:54:34.629Z,13.80
2018-12-05T12:57:02.813Z,10.08
2018-12-05T12:59:30.987Z,13.40
2018-12-05T13:01:59.169Z,17.12
2018-12-05T13:04:27.265Z,14.03
2018-12-05T13:06:55.444Z,14.60
2018-12-05T13:09:23.643Z,13.18
2018-12-05T13:11:51.996Z,16.32
2018-12-05T13:14:20.121Z,13.78
2018-12-05T13:16:48.296Z,15.93
2018-12-05T13:19:16.493Z,11.57
2018-12-05T13:21:44.692Z,14.63
2018-12-05T13:24:12.896Z,14.68
2018-12-05T13:26:41.060Z,13.40
2018-12-05T13:29:09.245Z,12.45
2018-12-05T13:31:37.432Z,12.78
2018-12-05T13:34:05.613Z,14.90
2018-12-05T13:36:33.793Z,12.82
2018-12-05T13:39:01.883Z,13.20
2018-12-05T13:41:30.056Z,10.82
2018-12-05T13:43:58.167Z,11.57
2018-12-05T13:46:29.846Z,14.75
2018-12-05T13:48:56.473Z,18.52
2018-12-05T13:51:24.655Z,12.63
2018-12-05T13:53:52.845Z,13.13
2018-12-05T13:56:21.024Z,16.00
2018-12-05T13:58:49.113Z,11.38
2018-12-05T14:01:17.301Z,13.03
2018-12-05T14:03:45.393Z,13.28
2018-12-05T14:06:13.568Z,10.08
2018-12-05T14:08:41.677Z,12.80
2018-12-05T14:11:09.868Z,15.28
2018-12-05T14:13:38.085Z,15.40
2018-12-05T14:16:06.264Z,14.23
2018-12-05T14:18:34.532Z,13.70
2018-12-05T14:21:02.737Z,10.72
2018-12-05T14:23:30.906Z,15.38
2018-12-05T14:25:59.092Z,10.93
2018-12-05T14:28:27.276Z,13.25
2018-12-05T14:30:55.468Z,14.78
2018-12-05T14:33:24.580Z,12.60
2018-12-05T14:35:52.872Z,10.25
2018-12-05T14:38:21.163Z,11.28
2018-12-05T14:40:49.355Z,10.68
2018-12-05T14:43:17.635Z,15.45
2018-12-05T14:45:45.938Z,13.22
2018-12-05T14:48:14.109Z,13.45
2018-12-05T14:50:42.407Z,14.13
2018-12-05T14:53:10.692Z,22.55
2018-12-05T14:55:38.893Z,50.38
2018-12-05T14:58:07.065Z,28.25
2018-12-05T15:00:35.171Z,14.30
2018-12-05T15:03:04.364Z,13.98
2018-12-05T15:05:32.656Z,14.80
2018-12-05T15:08:00.756Z,12.20
2018-12-05T15:10:28.936Z,11.78
2018-12-05T15:12:57.109Z,11.60
2018-12-05T15:15:25.297Z,13.88
2018-12-05T15:17:53.472Z,13.28
2018-12-05T15:20:21.674Z,12.53
2018-12-05T15:22:49.956Z,14.33
2018-12-05T15:25:18.149Z,9.03
2018-12-05T15:27:46.324Z,15.32
2018-12-05T15:30:14.529Z,12.05
2018-12-05T15:32:42.712Z,12.75
2018-12-05T15:35:10.903Z,14.90
2018-12-05T15:37:39.089Z,13.08
2018-12-05T15:40:07.284Z,15.50
2018-12-05T15:42:35.797Z,13.48
2018-12-05T15:45:05.132Z,14.83
2018-12-05T15:47:33.364Z,15.15
2018-12-05T15:50:01.547Z,15.98
2018-12-05T15:52:30.675Z,18.10
2018-12-05T15:54:58.968Z,13.80
2018-12-05T15:57:27.137Z,13.25
2018-12-05T15:59:55.332Z,15.93
2018-12-05T16:02:23.517Z,11.65
2018-12-05T16:04:51.796Z,13.20
2018-12-05T16:07:19.989Z,13.75
2018-12-05T16:09:48.197Z,14.35
2018-12-05T16:12:17.386Z,17.92
2018-12-05T16:14:45.592Z,39.18
2018-12-05T16:17:13.776Z,66.70
2018-12-05T16:19:41.949Z,75.35
2018-12-05T16:22:10.136Z,35.58
2018-12-05T16:24:38.322Z,21.37
2018-12-05T16:27:06.749Z,18.17
2018-12-05T16:29:34.897Z,13.70
2018-12-05T16:32:03.093Z,19.17
2018-12-05T16:34:31.264Z,17.02
2018-12-05T16:36:59.510Z,19.82
2018-12-05T16:39:27.751Z,17.37
2018-12-05T16:41:56.045Z,15.88
2018-12-05T16:44:24.225Z,15.23
2018-12-05T16:46:52.412Z,15.50
2018-12-05T16:49:20.601Z,14.70
2018-12-05T16:51:48.903Z,17.40
2018-12-05T16:54:17.357Z,16.97
2018-12-05T16:56:45.576Z,14.25
2018-12-05T16:59:13.865Z,17.85
2018-12-05T17:01:42.050Z,15.98
2018-12-05T17:04:10.341Z,19.45
2018-12-05T17:06:38.553Z,15.35
2018-12-05T17:09:07.492Z,21.50
2018-12-05T17:11:35.687Z,21.97
2018-12-05T17:14:03.879Z,16.27
2018-12-05T17:16:32.062Z,18.17
2018-12-05T17:19:00.248Z,15.90
2018-12-05T17:21:28.432Z,15.35
2018-12-05T17:23:56.624Z,14.23
2018-12-05T17:26:24.808Z,17.37
2018-12-05T17:28:53.009Z,15.68
2018-12-05T17:31:21.204Z,17.00
2018-12-05T17:33:49.521Z,17.82
2018-12-05T17:36:17.760Z,13.98
2018-12-05T17:38:45.897Z,18.02
2018-12-05T17:41:14.028Z,22.55
2018-12-05T17:43:42.117Z,17.27
2018-12-05T17:46:10.314Z,16.60
2018-12-05T17:48:38.498Z,17.95
2018-12-05T17:51:06.781Z,16.25
2018-12-05T17:53:34.968Z,18.77
2018-12-05T17:56:03.149Z,16.65
2018-12-05T17:58:31.340Z,19.62
2018-12-05T18:00:59.429Z,20.48
2018-12-05T18:03:27.617Z,19.20
2018-12-05T18:05:55.817Z,19.45
2018-12-05T18:08:23.993Z,16.85
2018-12-05T18:10:52.205Z,15.25
2018-12-05T18:13:20.580Z,15.95
2018-12-05T18:15:48.920Z,16.55
2018-12-05T18:18:17.064Z,17.30
2018-12-05T18:20:45.265Z,15.58
2018-12-05T18:23:13.452Z,16.62
2018-12-05T18:25:41.637Z,19.20
2018-12-05T18:28:09.832Z,21.33
2018-12-05T18:30:38.017Z,43.60
2018-12-05T18:33:06.189Z,24.05
2018-12-05T18:35:34.376Z,19.10
2018-12-05T18:38:02.565Z,20.95
2018-12-05T18:40:30.758Z,15.85
2018-12-05T18:42:59.013Z,15.75
2018-12-05T18:45:27.236Z,18.70
2018-12-05T18:47:55.412Z,15.43
2018-12-05T18:50:23.613Z,18.95
2018-12-05T18:52:51.788Z,15.10
2018-12-05T18:55:20.048Z,17.45
2018-12-05T18:57:48.173Z,21.20
2018-12-05T19:00:16.354Z,19.23
2018-12-05T19:02:44.640Z,21.73
2018-12-05T19:05:12.898Z,17.57
2018-12-05T19:07:41.103Z,22.52
2018-12-05T19:10:09.285Z,21.65
2018-12-05T19:12:37.456Z,18.80
2018-12-05T19:15:06.220Z,17.67
2018-12-05T19:17:34.349Z,16.48
2018-12-05T19:20:02.553Z,16.05
2018-12-05T19:22:30.725Z,18.23
2018-12-05T19:24:58.901Z,19.60
2018-12-05T19:27:27.101Z,18.90
2018-12-05T19:29:55.273Z,16.70
2018-12-05T19:32:23.370Z,22.98
2018-12-05T19:34:51.545Z,18.98
2018-12-05T19:37:19.756Z,18.02
2018-12-05T19:39:47.934Z,15.38
2018-12-05T19:42:16.117Z,17.15
2018-12-05T19:44:44.316Z,21.80
2018-12-05T19:47:12.493Z,20.77
2018-12-05T19:49:40.689Z,15.48
2018-12-05T19:52:08.867Z,14.98
2018-12-05T19:54:37.045Z,17.07
2018-12-05T19:57:05.233Z,17.27
2018-12-05T19:59:33.416Z,17.48
2018-12-05T20:02:01.578Z,17.57
2018-12-05T20:04:29.699Z,16.37
2018-12-05T20:06:57.881Z,18.20
2018-12-05T20:09:26.060Z,18.20
2018-12-05T20:11:54.252Z,19.85
2018-12-05T20:14:27.787Z,18.50
2018-12-05T20:16:55.960Z,15.08
2018-12-05T20:19:24.184Z,18.73
2018-12-05T20:21:52.332Z,18.90
2018-12-05T20:24:20.513Z,14.63
2018-12-05T20:26:48.711Z,15.70
2018-12-05T20:29:16.900Z,16.27
2018-12-05T20:31:45.097Z,16.30
2018-12-05T20:34:13.397Z,17.35
2018-12-05T20:36:41.581Z,18.37
2018-12-05T20:39:10.696Z,18.82
2018-12-05T20:41:38.973Z,17.65
2018-12-05T20:44:07.250Z,16.48
2018-12-05T20:46:35.444Z,16.67
2018-12-05T20:49:03.636Z,16.97
2018-12-05T20:51:31.833Z,15.98
2018-12-05T20:54:00.024Z,26.42
2018-12-05T20:56:28.199Z,44.95
2018-12-05T20:58:56.400Z,57.73
2018-12-05T21:01:25.084Z,37.33
2018-12-05T21:03:53.391Z,19.45
2018-12-05T21:06:21.561Z,22.67
2018-12-05T21:08:49.856Z,18.35
2018-12-05T21:11:18.028Z,17.35
2018-12-05T21:13:46.196Z,17.75
2018-12-05T21:16:14.385Z,17.50
2018-12-05T21:18:42.577Z,19.87
2018-12-05T21:21:10.752Z,20.88
2018-12-05T21:23:38.955Z,19.60
2018-12-05T21:26:07.132Z,15.70
2018-12-05T21:28:35.320Z,15.35
2018-12-05T21:31:03.520Z,19.62
2018-12-05T21:33:31.696Z,17.77
2018-12-05T21:35:59.888Z,17.57
2018-12-05T21:38:28.068Z,17.85
2018-12-05T21:40:56.250Z,20.55
2018-12-05T21:43:24.466Z,19.55
2018-12-05T21:45:52.733Z,21.65
2018-12-05T21:48:20.989Z,23.38
2018-12-05T21:50:49.104Z,21.65
2018-12-05T21:53:17.296Z,21.25
2018-12-05T21:55:45.476Z,17.25
2018-12-05T21:58:13.756Z,19.27
2018-12-05T22:00:41.953Z,18.15
2018-12-05T22:03:10.156Z,18.77
2018-12-05T22:05:38.320Z,16.35
2018-12-05T22:08:06.512Z,16.90
2018-12-05T22:10:34.728Z,17.62
2018-12-05T22:13:02.912Z,15.60
2018-12-05T22:15:31.101Z,15.28
2018-12-05T22:17:59.284Z,17.90
2018-12-05T22:20:27.561Z,20.48
2018-12-05T22:22:55.765Z,17.15
2018-12-05T22:25:23.964Z,18.62
2018-12-05T22:27:52.136Z,19.90
2018-12-05T22:30:20.332Z,14.58
2018-12-05T22:32:48.512Z,18.50
2018-12-05T22:35:16.704Z,15.10
2018-12-05T22:37:44.886Z,16.93
2018-12-05T22:40:13.186Z,18.70
2018-12-05T22:42:42.389Z,16.07
2018-12-05T22:45:10.585Z,16.50
2018-12-05T22:47:38.760Z,14.83
2018-12-05T22:50:07.935Z,16.80
2018-12-05T22:52:36.162Z,15.53
2018-12-05T22:55:04.580Z,15.70
2018-12-05T22:57:32.732Z,14.58
2018-12-05T23:00:00.930Z,18.80
2018-12-05T23:02:29.040Z,14.80
2018-12-05T23:04:57.205Z,13.65
2018-12-05T23:07:25.384Z,17.37
2018-12-05T23:09:53.572Z,14.83
2018-12-05T23:12:21.762Z,17.92
2018-12-05T23:14:50.049Z,17.23
2018-12-05T23:17:18.241Z,15.93
2018-12-05T23:19:46.417Z,16.93
2018-12-05T23:22:15.133Z,15.35
2018-12-05T23:24:43.308Z,16.07
2018-12-05T23:27:11.500Z,16.48
2018-12-05T23:29:39.682Z,17.65
2018-12-05T23:32:07.873Z,15.60
2018-12-05T23:34:36.048Z,15.50
2018-12-05T23:37:04.247Z,16.17
2018-12-05T23:39:32.524Z,15.58
2018-12-05T23:42:00.724Z,18.07
2018-12-05T23:44:28.900Z,13.58
2018-12-05T23:46:57.096Z,16.00
2018-12-05T23:49:25.272Z,15.28
2018-12-05T23:51:53.473Z,15.23
2018-12-05T23:54:21.648Z,15.93
2018-12-05T23:56:49.848Z,16.82
2018-12-05T23:59:18.038Z,17.52
